Time;durP1;ratioP1;P1;durP2;ratioP2;P2;SDS_P1;SDS_P2;PMS_P1;PMS_P2;Temp;Humidity;BMP_temperature;BMP_pressure;BME280_temperature;BME280_humidity;BME280_pressure;Samples;Min_cycle;Max_cycle;Signal;HPM_P1;HPM_P2
2023/08/27 00:01:43;;;;;;;32.55;24.30;;;25.60;74.60;;;;;;5097890;28;20069;-62
2023/08/27 00:04:09;;;;;;;32.67;25.92;;;25.60;75.50;;;;;;5097837;28;20043;-62
2023/08/27 00:06:35;;;;;;;30.92;24.23;;;25.60;76.10;;;;;;5096544;28;20060;-62
2023/08/27 00:09:05;;;;;;;34.83;27.15;;;25.60;76.10;;;;;;5098023;28;20016;-62
2023/08/27 00:11:31;;;;;;;33.88;26.42;;;25.50;76.30;;;;;;5097370;28;20039;-62
2023/08/27 00:13:57;;;;;;;32.92;25.08;;;25.60;76.90;;;;;;5097323;28;20024;-61
2023/08/27 00:16:26;;;;;;;31.17;24.98;;;25.60;77.10;;;;;;5097866;28;20028;-62
2023/08/27 00:18:52;;;;;;;31.38;24.98;;;25.50;77.10;;;;;;5097235;28;20090;-62
2023/08/27 00:21:18;;;;;;;32.08;23.75;;;25.50;77.00;;;;;;5097412;28;20463;-62
2023/08/27 00:23:44;;;;;;;31.55;23.80;;;25.50;77.20;;;;;;5097143;28;20544;-62
2023/08/27 00:26:11;;;;;;;28.83;23.08;;;25.50;77.50;;;;;;5097158;28;20099;-62
2023/08/27 00:28:39;;;;;;;33.97;24.58;;;25.50;77.70;;;;;;5097071;28;20050;-61
2023/08/27 00:31:05;;;;;;;26.25;21.75;;;25.50;77.60;;;;;;5097060;28;20058;-61
2023/08/27 00:33:31;;;;;;;31.77;21.98;;;25.50;77.50;;;;;;5097194;28;20020;-62
2023/08/27 00:35:57;;;;;;;24.70;19.63;;;25.50;77.30;;;;;;5094955;28;20395;-62
2023/08/27 00:38:23;;;;;;;30.88;23.90;;;25.50;77.20;;;;;;5096783;28;20016;-62
2023/08/27 00:40:49;;;;;;;27.60;20.88;;;25.50;77.40;;;;;;5096780;28;20028;-61
2023/08/27 00:43:18;;;;;;;31.90;23.90;;;25.50;77.40;;;;;;5096990;28;20061;-62
2023/08/27 00:45:44;;;;;;;33.47;24.88;;;25.50;77.90;;;;;;5096747;28;20081;-62
2023/08/27 00:48:10;;;;;;;30.17;22.48;;;25.40;78.30;;;;;;5097220;28;20016;-62
2023/08/27 00:50:37;;;;;;;31.42;23.70;;;25.40;78.50;;;;;;5096618;28;20035;-62
2023/08/27 00:53:03;;;;;;;32.45;25.05;;;25.40;78.30;;;;;;5096475;28;20060;-62
2023/08/27 00:55:29;;;;;;;27.52;20.98;;;25.40;78.70;;;;;;5097619;28;20028;-62
2023/08/27 00:57:55;;;;;;;32.10;22.08;;;25.40;78.50;;;;;;5095645;28;20349;-62
2023/08/27 01:00:22;;;;;;;26.25;21.98;;;25.30;78.40;;;;;;5095376;28;20024;-62
2023/08/27 01:02:48;;;;;;;25.92;20.85;;;25.30;78.10;;;;;;5096392;28;20020;-62
2023/08/27 01:05:14;;;;;;;27.20;21.10;;;25.30;77.70;;;;;;5096197;28;20039;-62
2023/08/27 01:07:59;;;;;;;26.70;21.85;;;25.30;77.60;;;;;;5096298;28;20021;-62
2023/08/27 01:10:54;;;;;;;24.30;18.48;;;25.30;77.40;;;;;;5096237;28;20032;-62
2023/08/27 01:13:35;;;;;;;24.13;19.15;;;25.30;77.20;;;;;;5096446;28;20024;-62
2023/08/27 01:16:03;;;;;;;23.55;18.33;;;25.20;77.00;;;;;;5096715;28;20400;-62
2023/08/27 01:18:31;;;;;;;25.15;20.25;;;25.30;76.80;;;;;;5096109;28;20016;-62
2023/08/27 01:20:57;;;;;;;28.60;20.38;;;25.30;76.80;;;;;;5096290;28;20118;-62
2023/08/27 01:23:24;;;;;;;21.92;18.48;;;25.30;76.70;;;;;;5096256;28;20020;-62
2023/08/27 01:25:52;;;;;;;25.55;19.77;;;25.30;76.50;;;;;;5096262;28;20032;-62
2023/08/27 01:28:45;;;;;;;24.50;19.90;;;25.20;76.30;;;;;;5096192;28;20020;-63
2023/08/27 01:31:17;;;;;;;25.00;20.70;;;25.20;76.20;;;;;;5096545;28;20421;-62
2023/08/27 01:33:45;;;;;;;24.27;18.92;;;25.20;76.20;;;;;;5096270;28;20058;-63
2023/08/27 01:36:12;;;;;;;21.48;17.92;;;25.20;76.10;;;;;;5095860;28;20081;-62
2023/08/27 01:38:38;;;;;;;23.60;18.63;;;25.20;76.00;;;;;;5095806;28;20028;-61
2023/08/27 01:41:06;;;;;;;20.75;16.48;;;25.20;75.90;;;;;;5095741;28;20032;-62
2023/08/27 01:43:33;;;;;;;19.05;16.42;;;25.20;75.80;;;;;;5095956;28;20125;-62
2023/08/27 01:45:59;;;;;;;20.55;17.52;;;25.20;75.80;;;;;;5095715;28;20430;-62
2023/08/27 01:48:25;;;;;;;18.90;16.25;;;25.10;75.70;;;;;;5095916;28;20035;-62
2023/08/27 01:50:50;;;;;;;21.30;16.83;;;25.10;75.60;;;;;;5095910;28;20024;-62
2023/08/27 01:53:16;;;;;;;24.73;19.75;;;25.10;75.60;;;;;;5095365;28;20047;-62
2023/08/27 01:55:42;;;;;;;25.77;21.40;;;25.10;75.40;;;;;;5095615;28;20110;-62
2023/08/27 01:58:08;;;;;;;25.48;19.48;;;25.10;75.60;;;;;;5095611;28;20024;-62
2023/08/27 02:00:34;;;;;;;24.90;20.73;;;25.10;75.90;;;;;;5095487;28;20110;-62
2023/08/27 02:03:00;;;;;;;22.67;19.45;;;25.10;75.70;;;;;;5095519;28;20034;-62
2023/08/27 02:05:26;;;;;;;23.42;18.85;;;25.00;75.70;;;;;;5095655;28;20035;-62
2023/08/27 02:07:52;;;;;;;21.83;17.77;;;24.90;75.60;;;;;;5095999;28;20031;-62
2023/08/27 02:10:18;;;;;;;20.42;17.02;;;24.90;75.60;;;;;;5095674;28;20036;-62
2023/08/27 02:12:44;;;;;;;19.70;16.58;;;24.90;75.60;;;;;;5095939;28;20389;-62
2023/08/27 02:15:10;;;;;;;18.00;15.77;;;24.90;75.60;;;;;;5095829;28;20055;-62
2023/08/27 02:17:37;;;;;;;21.65;16.25;;;24.90;75.60;;;;;;5095392;28;20038;-62
2023/08/27 02:20:09;;;;;;;19.35;15.65;;;24.80;75.60;;;;;;5095274;28;20024;-62
2023/08/27 02:22:35;;;;;;;20.20;15.60;;;24.80;75.50;;;;;;5095623;28;20030;-62
2023/08/27 02:25:01;;;;;;;20.33;15.90;;;24.80;75.50;;;;;;5095210;28;20031;-62
2023/08/27 02:27:27;;;;;;;23.73;18.90;;;24.80;75.50;;;;;;5095298;28;20020;-62
2023/08/27 02:29:53;;;;;;;25.42;19.48;;;24.80;75.70;;;;;;5095532;28;20024;-62
2023/08/27 02:32:19;;;;;;;26.05;19.85;;;24.80;76.10;;;;;;5095512;28;20035;-62
2023/08/27 02:34:45;;;;;;;20.38;17.30;;;24.70;76.10;;;;;;5095296;28;20032;-62
2023/08/27 02:37:11;;;;;;;21.75;17.52;;;24.70;76.00;;;;;;5095197;28;20031;-62
2023/08/27 02:39:37;;;;;;;20.23;16.25;;;24.70;75.80;;;;;;5095103;28;20043;-62
2023/08/27 02:42:03;;;;;;;19.00;16.13;;;24.70;75.70;;;;;;5095391;28;20020;-62
2023/08/27 02:44:29;;;;;;;20.73;16.35;;;24.70;75.60;;;;;;5095071;28;20048;-62
2023/08/27 02:46:55;;;;;;;19.90;16.48;;;24.70;75.50;;;;;;5095623;28;20048;-62
2023/08/27 02:49:21;;;;;;;22.98;17.08;;;24.70;75.20;;;;;;5095605;28;20031;-62
2023/08/27 02:51:47;;;;;;;21.33;16.65;;;24.70;75.00;;;;;;5094840;28;20040;-62
2023/08/27 02:54:13;;;;;;;21.48;17.50;;;24.70;74.90;;;;;;5095252;28;20028;-62
2023/08/27 02:56:54;;;;;;;22.00;17.98;;;24.70;74.70;;;;;;5095034;28;20020;-62
2023/08/27 02:59:20;;;;;;;23.00;18.95;;;24.70;74.70;;;;;;5096507;28;20111;-62
2023/08/27 03:01:59;;;;;;;23.40;18.00;;;24.70;74.30;;;;;;5098713;28;20138;-62
2023/08/27 03:04:28;;;;;;;20.65;16.77;;;24.70;74.50;;;;;;5098974;28;20111;-62
2023/08/27 03:06:54;;;;;;;24.17;20.85;;;24.60;74.40;;;;;;5098606;28;20434;-62
2023/08/27 03:09:20;;;;;;;26.75;21.10;;;24.60;74.30;;;;;;5099213;28;20046;-62
2023/08/27 03:11:46;;;;;;;25.67;19.95;;;24.70;74.40;;;;;;5098871;28;20119;-62
2023/08/27 03:14:12;;;;;;;23.00;18.58;;;24.60;74.50;;;;;;5098467;28;20447;-62
2023/08/27 03:16:40;;;;;;;20.85;17.73;;;24.50;74.60;;;;;;5098514;28;20056;-62
2023/08/27 03:19:06;;;;;;;21.58;16.67;;;24.50;74.70;;;;;;5098407;28;20335;-62
2023/08/27 03:21:35;;;;;;;21.45;16.30;;;24.50;74.80;;;;;;5098345;28;20020;-61
2023/08/27 03:24:01;;;;;;;22.08;17.50;;;24.50;74.80;;;;;;5098290;28;20081;-62
2023/08/27 03:26:27;;;;;;;19.55;16.33;;;24.60;75.10;;;;;;5098319;28;20095;-62
2023/08/27 03:28:53;;;;;;;20.27;15.90;;;24.60;74.70;;;;;;5098281;28;20106;-62
2023/08/27 03:31:19;;;;;;;19.55;15.57;;;24.60;74.80;;;;;;5098542;28;20031;-62
2023/08/27 03:33:45;;;;;;;20.63;16.25;;;24.70;74.60;;;;;;5098683;28;20028;-62
2023/08/27 03:36:12;;;;;;;20.45;16.48;;;24.70;74.50;;;;;;5098407;28;20086;-62
2023/08/27 03:38:37;;;;;;;19.92;16.27;;;24.70;74.50;;;;;;5098064;28;20032;-62
2023/08/27 03:41:03;;;;;;;22.10;19.45;;;24.60;74.50;;;;;;5096998;28;20054;-62
2023/08/27 03:43:30;;;;;;;25.95;21.40;;;24.60;74.70;;;;;;5098203;28;20070;-62
2023/08/27 03:45:59;;;;;;;21.05;17.55;;;24.60;74.40;;;;;;5098195;28;20020;-62
2023/08/27 03:48:25;;;;;;;25.05;18.90;;;24.60;74.40;;;;;;5098432;28;20066;-62
2023/08/27 03:50:51;;;;;;;23.23;19.38;;;24.50;74.50;;;;;;5098145;28;20048;-62
2023/08/27 03:53:17;;;;;;;24.52;19.92;;;24.50;74.80;;;;;;5097622;28;20449;-62
2023/08/27 03:55:43;;;;;;;23.70;18.73;;;24.40;74.80;;;;;;5097840;28;20035;-62
2023/08/27 03:58:10;;;;;;;20.77;16.88;;;24.40;74.80;;;;;;5098276;28;20028;-61
2023/08/27 04:00:39;;;;;;;19.52;16.38;;;24.40;75.00;;;;;;5096591;28;20031;-62
2023/08/27 04:03:05;;;;;;;20.15;16.83;;;24.50;75.10;;;;;;5097615;28;20035;-62
2023/08/27 04:05:31;;;;;;;25.10;19.83;;;24.50;75.20;;;;;;5097509;28;20369;-62
2023/08/27 04:07:57;;;;;;;19.60;16.75;;;24.50;75.50;;;;;;5098050;28;20037;-62
2023/08/27 04:10:23;;;;;;;21.98;16.30;;;24.50;75.30;;;;;;5097594;28;20020;-62
2023/08/27 04:12:49;;;;;;;21.48;18.02;;;24.50;75.30;;;;;;5096464;28;20024;-62
2023/08/27 04:15:17;;;;;;;20.60;17.15;;;24.50;75.30;;;;;;5097856;28;20081;-62
2023/08/27 04:17:43;;;;;;;31.80;23.45;;;24.50;75.30;;;;;;5097102;28;20032;-62
2023/08/27 04:20:10;;;;;;;26.50;20.48;;;24.40;76.50;;;;;;5097690;28;20099;-62
2023/08/27 04:22:36;;;;;;;26.48;19.48;;;24.40;76.00;;;;;;5097676;28;20433;-62
2023/08/27 04:25:03;;;;;;;23.27;18.92;;;24.30;76.20;;;;;;5097166;28;20047;-62
2023/08/27 04:27:29;;;;;;;23.25;20.48;;;24.40;76.30;;;;;;5097602;28;20422;-62
2023/08/27 04:29:55;;;;;;;30.35;21.80;;;24.40;76.10;;;;;;5097773;28;20073;-62
2023/08/27 04:32:21;;;;;;;36.38;24.85;;;24.40;76.20;;;;;;5096906;28;20089;-62
2023/08/27 04:34:47;;;;;;;43.60;27.10;;;24.40;76.30;;;;;;5096800;28;20016;-62
2023/08/27 04:37:13;;;;;;;37.80;24.23;;;24.40;76.30;;;;;;5096912;28;20028;-62
2023/08/27 04:39:39;;;;;;;44.95;28.42;;;24.40;76.20;;;;;;5097320;28;20460;-62
2023/08/27 04:42:06;;;;;;;41.85;28.27;;;24.50;76.10;;;;;;5097055;28;20376;-62
2023/08/27 04:44:32;;;;;;;37.47;24.83;;;24.50;76.10;;;;;;5096661;28;20024;-62
2023/08/27 04:46:59;;;;;;;32.30;22.33;;;24.50;76.10;;;;;;5096954;28;20024;-61
2023/08/27 04:49:25;;;;;;;36.00;23.13;;;24.50;76.00;;;;;;5096640;28;20433;-62
2023/08/27 04:51:56;;;;;;;26.85;20.75;;;24.50;76.00;;;;;;5096528;28;20067;-62
2023/08/27 04:54:24;;;;;;;29.98;19.45;;;24.50;75.80;;;;;;5096759;28;20117;-62
2023/08/27 04:56:50;;;;;;;29.40;21.90;;;24.50;75.80;;;;;;5095360;28;20058;-62
2023/08/27 04:59:18;;;;;;;26.30;20.63;;;24.60;75.80;;;;;;5096474;28;20352;-62
2023/08/27 05:01:44;;;;;;;28.02;20.58;;;24.70;75.70;;;;;;5096251;28;20111;-62
2023/08/27 05:04:11;;;;;;;25.80;18.48;;;24.70;75.60;;;;;;5096373;28;20047;-62
2023/08/27 05:06:41;;;;;;;24.65;18.63;;;24.70;75.50;;;;;;5096229;28;20069;-61
2023/08/27 05:09:16;;;;;;;25.33;18.05;;;24.70;75.40;;;;;;5096812;28;20035;-61
2023/08/27 05:11:42;;;;;;;22.67;17.38;;;24.70;75.30;;;;;;5096492;28;20023;-62
2023/08/27 05:14:08;;;;;;;24.33;19.25;;;24.80;75.30;;;;;;5096353;28;20031;-62
2023/08/27 05:16:35;;;;;;;23.67;19.52;;;24.90;75.20;;;;;;5096036;28;20115;-62
2023/08/27 05:19:01;;;;;;;20.38;17.23;;;24.90;74.90;;;;;;5096031;28;20337;-62
2023/08/27 05:21:27;;;;;;;24.33;19.15;;;25.00;74.80;;;;;;5095983;28;20020;-62
2023/08/27 05:23:53;;;;;;;23.00;17.55;;;25.00;74.50;;;;;;5095905;28;20341;-62
2023/08/27 05:26:19;;;;;;;24.10;18.63;;;25.00;74.50;;;;;;5095983;28;20028;-62
2023/08/27 05:28:47;;;;;;;25.23;19.15;;;25.10;74.70;;;;;;5094937;28;20035;-62
2023/08/27 05:31:13;;;;;;;21.15;16.05;;;25.40;74.80;;;;;;5095920;28;20028;-62
2023/08/27 05:33:39;;;;;;;21.48;16.88;;;25.40;74.30;;;;;;5095707;28;20395;-62
2023/08/27 05:36:07;;;;;;;19.02;15.43;;;25.40;74.20;;;;;;5096369;28;20024;-62
2023/08/27 05:38:33;;;;;;;19.90;16.83;;;25.40;74.00;;;;;;5095806;28;20036;-61
2023/08/27 05:40:59;;;;;;;20.52;16.75;;;25.40;74.00;;;;;;5095937;28;20027;-62
2023/08/27 05:43:26;;;;;;;19.90;16.27;;;25.50;74.00;;;;;;5095669;28;20024;-62
2023/08/27 05:45:52;;;;;;;24.08;18.20;;;25.60;73.80;;;;;;5095877;28;20020;-62
2023/08/27 05:48:18;;;;;;;20.98;16.48;;;25.80;73.60;;;;;;5095949;28;20137;-62
2023/08/27 05:50:44;;;;;;;20.85;16.88;;;26.30;73.10;;;;;;5095891;28;20027;-62
2023/08/27 05:53:11;;;;;;;20.55;17.48;;;27.30;71.70;;;;;;5095346;28;20051;-62
2023/08/27 05:55:44;;;;;;;22.75;17.73;;;28.40;69.40;;;;;;5094565;28;20361;-62
2023/08/27 05:58:10;;;;;;;;;;;29.90;66.80;;;;;;5095977;28;20107;-62
2023/08/27 06:00:36;;;;;;;18.95;16.25;;;31.20;63.70;;;;;;5094472;28;19996;-62
2023/08/27 06:03:03;;;;;;;19.25;16.23;;;32.10;60.40;;;;;;5095490;28;20404;-62
2023/08/27 06:05:29;;;;;;;20.48;15.63;;;33.20;58.40;;;;;;5095570;28;20494;-62
2023/08/27 06:07:55;;;;;;;18.75;15.60;;;34.30;56.20;;;;;;5095462;28;20020;-62
2023/08/27 06:10:21;;;;;;;20.40;15.63;;;35.20;54.10;;;;;;5095446;28;20032;-62
2023/08/27 06:12:47;;;;;;;18.80;15.10;;;35.90;52.50;;;;;;5095409;28;20024;-63
2023/08/27 06:15:13;;;;;;;18.63;14.73;;;36.60;51.00;;;;;;5095519;28;20059;-62
2023/08/27 06:17:39;;;;;;;17.42;15.32;;;37.40;49.70;;;;;;5095322;28;20035;-63
2023/08/27 06:20:07;;;;;;;16.33;14.05;;;38.20;48.30;;;;;;5095504;28;20024;-62
2023/08/27 06:22:33;;;;;;;17.63;14.07;;;38.90;46.60;;;;;;5095486;28;20020;-63
2023/08/27 06:24:59;;;;;;;20.45;16.90;;;39.60;45.60;;;;;;5095248;28;20392;-63
2023/08/27 06:27:25;;;;;;;18.17;14.50;;;40.30;43.90;;;;;;5095286;28;20020;-62
2023/08/27 06:29:51;;;;;;;16.65;13.23;;;40.70;43.30;;;;;;5094593;28;20016;-63
2023/08/27 06:32:17;;;;;;;15.05;13.30;;;41.00;42.10;;;;;;5095737;28;20016;-63
2023/08/27 06:34:43;;;;;;;18.05;15.15;;;41.50;41.40;;;;;;5097053;28;20465;-63
2023/08/27 06:37:10;;;;;;;17.60;13.38;;;41.60;39.40;;;;;;5099777;28;20145;-63
2023/08/27 06:39:37;;;;;;;17.52;13.00;;;41.70;39.40;;;;;;5098136;28;20054;-63
2023/08/27 06:42:04;;;;;;;14.02;12.52;;;42.10;39.00;;;;;;5099709;28;20020;-63
2023/08/27 06:44:30;;;;;;;14.35;12.30;;;42.40;37.60;;;;;;5099047;28;20028;-63
2023/08/27 06:46:56;;;;;;;13.90;12.45;;;42.00;37.10;;;;;;5098963;28;20024;-62
2023/08/27 06:49:23;;;;;;;15.60;13.20;;;41.70;37.50;;;;;;5099311;28;20042;-63
2023/08/27 06:51:50;;;;;;;15.90;12.68;;;41.70;36.10;;;;;;5099660;28;20094;-63
2023/08/27 06:54:16;;;;;;;16.73;12.50;;;41.80;34.40;;;;;;5099077;28;20028;-63
2023/08/27 06:56:41;;;;;;;16.10;12.32;;;41.60;34.80;;;;;;5098846;28;20437;-63
2023/08/27 06:59:10;;;;;;;15.25;12.43;;;41.00;35.40;;;;;;5098871;28;20053;-63
2023/08/27 07:01:36;;;;;;;16.35;12.98;;;40.10;36.40;;;;;;5098081;28;20028;-62
2023/08/27 07:04:03;;;;;;;15.45;13.38;;;38.90;37.10;;;;;;5098648;28;20039;-62
2023/08/27 07:06:31;;;;;;;15.20;12.98;;;37.40;38.70;;;;;;5098653;28;20055;-63
2023/08/27 07:09:09;;;;;;;15.95;13.55;;;36.00;40.90;;;;;;5098699;28;20081;-63
2023/08/27 07:11:35;;;;;;;15.85;12.10;;;36.00;41.70;;;;;;5099193;28;20035;-62
2023/08/27 07:14:01;;;;;;;14.25;11.90;;;36.30;41.90;;;;;;5098542;28;20024;-62
2023/08/27 07:16:27;;;;;;;16.10;12.90;;;36.40;41.90;;;;;;5098593;28;20095;-62
2023/08/27 07:18:54;;;;;;;15.90;12.38;;;36.40;42.10;;;;;;5098522;28;20102;-63
2023/08/27 07:21:22;;;;;;;14.80;12.02;;;37.00;41.50;;;;;;5098405;28;20480;-62
2023/08/27 07:23:48;;;;;;;16.65;12.38;;;37.70;40.00;;;;;;5098351;28;20031;-63
2023/08/27 07:26:14;;;;;;;16.60;13.25;;;37.80;39.90;;;;;;5098365;28;20024;-63
2023/08/27 07:28:41;;;;;;;15.45;12.98;;;37.20;39.70;;;;;;5098600;28;20016;-63
2023/08/27 07:31:08;;;;;;;15.52;13.70;;;36.20;40.60;;;;;;5098807;28;20024;-63
2023/08/27 07:33:34;;;;;;;21.83;15.00;;;35.40;42.50;;;;;;5098170;28;20038;-63
2023/08/27 07:36:00;;;;;;;14.65;13.02;;;34.90;43.70;;;;;;5098704;28;20167;-63
2023/08/27 07:38:27;;;;;;;15.38;13.18;;;34.50;44.40;;;;;;5098164;28;20062;-63
2023/08/27 07:40:54;;;;;;;16.27;13.60;;;34.00;45.40;;;;;;5097964;28;20499;-63
2023/08/27 07:43:20;;;;;;;17.05;14.55;;;33.90;46.10;;;;;;5098705;28;20035;-63
2023/08/27 07:45:49;;;;;;;14.90;12.43;;;33.60;46.70;;;;;;5097480;28;20024;-62
2023/08/27 07:48:15;;;;;;;16.92;14.50;;;33.40;47.40;;;;;;5098364;28;20078;-62
2023/08/27 07:50:41;;;;;;;16.13;13.75;;;33.30;48.20;;;;;;5096806;28;20137;-62
2023/08/27 07:53:07;;;;;;;17.15;14.93;;;33.00;49.20;;;;;;5097610;28;20047;-62
2023/08/27 07:55:36;;;;;;;18.75;15.23;;;32.50;51.50;;;;;;5096761;28;20411;-62
2023/08/27 07:58:02;;;;;;;18.88;16.58;;;32.10;54.50;;;;;;5098229;28;20024;-62
2023/08/27 08:00:29;;;;;;;17.98;14.55;;;31.60;55.20;;;;;;5098170;28;20020;-62
2023/08/27 08:03:14;;;;;;;19.50;15.05;;;31.40;55.20;;;;;;5098300;28;20354;-62
2023/08/27 08:05:40;;;;;;;17.90;15.65;;;31.40;55.50;;;;;;5096642;28;20334;-62
2023/08/27 08:08:06;;;;;;;19.80;16.35;;;31.70;55.60;;;;;;5097578;28;20466;-62
2023/08/27 08:10:32;;;;;;;17.38;15.23;;;31.80;55.30;;;;;;5097456;28;20089;-62
2023/08/27 08:12:58;;;;;;;17.45;15.18;;;31.80;55.00;;;;;;5098033;28;20059;-63
2023/08/27 08:15:24;;;;;;;18.98;15.00;;;31.70;55.00;;;;;;5097317;28;20020;-63
2023/08/27 08:17:50;;;;;;;17.60;15.52;;;31.70;54.70;;;;;;5097279;28;20028;-63
2023/08/27 08:20:17;;;;;;;17.23;15.43;;;31.70;54.90;;;;;;5097176;28;20039;-62
2023/08/27 08:22:42;;;;;;;19.30;15.30;;;31.70;54.90;;;;;;5097211;28;20016;-62
2023/08/27 08:25:08;;;;;;;15.57;13.88;;;31.70;54.80;;;;;;5097605;28;20320;-62
2023/08/27 08:27:35;;;;;;;17.85;15.60;;;31.90;54.80;;;;;;5097366;28;20028;-62
2023/08/27 08:30:03;;;;;;;20.15;16.08;;;32.10;54.60;;;;;;5097047;28;20028;-63
2023/08/27 08:32:29;;;;;;;19.92;15.60;;;32.00;55.30;;;;;;5096957;28;20032;-62
2023/08/27 08:34:55;;;;;;;18.60;15.50;;;31.90;55.40;;;;;;5096898;28;20035;-62
2023/08/27 08:37:23;;;;;;;20.20;15.68;;;31.90;55.20;;;;;;5095932;28;20063;-62
2023/08/27 08:39:49;;;;;;;18.77;15.32;;;31.90;55.50;;;;;;5096727;28;20042;-63
2023/08/27 08:42:43;;;;;;;18.88;16.25;;;31.90;55.40;;;;;;5096728;28;20024;-63
2023/08/27 08:45:27;;;;;;;17.15;14.70;;;31.40;56.30;;;;;;5097209;28;20520;-62
2023/08/27 08:48:01;;;;;;;21.75;15.60;;;31.60;56.20;;;;;;5095799;28;20372;-62
2023/08/27 08:50:32;;;;;;;15.57;13.43;;;31.50;55.90;;;;;;5096558;28;20110;-62
2023/08/27 08:53:04;;;;;;;19.23;15.77;;;31.80;55.50;;;;;;5095482;28;20440;-62
2023/08/27 08:55:31;;;;;;;19.38;15.07;;;31.80;55.10;;;;;;5096513;28;20024;-63
2023/08/27 08:58:04;;;;;;;20.77;14.65;;;31.80;55.60;;;;;;5095892;28;20036;-62
2023/08/27 09:00:31;;;;;;;16.55;14.77;;;31.90;54.50;;;;;;5096711;28;20050;-62
2023/08/27 09:03:02;;;;;;;16.67;14.50;;;32.00;54.90;;;;;;5096918;28;20038;-62
2023/08/27 09:05:30;;;;;;;18.52;14.95;;;32.10;54.70;;;;;;5096244;28;20453;-62
2023/08/27 09:07:57;;;;;;;18.95;15.48;;;32.20;54.10;;;;;;5095337;28;20020;-63
2023/08/27 09:10:25;;;;;;;17.48;14.48;;;32.10;53.80;;;;;;5096496;28;20024;-62
2023/08/27 09:13:02;;;;;;;16.52;14.07;;;32.00;54.10;;;;;;5095326;28;20078;-63
2023/08/27 09:15:28;;;;;;;18.70;15.05;;;32.00;54.00;;;;;;5096060;28;20035;-62
2023/08/27 09:17:54;;;;;;;16.77;14.55;;;32.00;53.30;;;;;;5096692;28;20028;-62
2023/08/27 09:20:22;;;;;;;16.88;14.02;;;31.80;53.20;;;;;;5096057;28;20103;-63
2023/08/27 09:22:48;;;;;;;18.30;14.15;;;31.80;53.80;;;;;;5096078;28;20407;-62
2023/08/27 09:25:14;;;;;;;18.75;15.00;;;31.90;53.90;;;;;;5098251;28;20064;-63
2023/08/27 09:27:41;;;;;;;15.07;13.48;;;31.90;54.00;;;;;;5103634;27;20039;-63
2023/08/27 09:30:08;;;;;;;19.85;15.02;;;32.00;54.30;;;;;;5115095;28;20020;-63
2023/08/27 09:32:34;;;;;;;17.35;14.10;;;32.30;53.90;;;;;;5113188;28;20368;-62
2023/08/27 09:35:02;;;;;;;17.38;14.82;;;32.50;53.20;;;;;;5113471;28;20032;-63
2023/08/27 09:37:28;;;;;;;16.55;14.10;;;32.80;52.10;;;;;;5114575;28;20027;-63
2023/08/27 09:39:55;;;;;;;16.50;14.38;;;32.80;51.80;;;;;;5113667;28;20076;-63
2023/08/27 09:42:22;;;;;;;18.63;14.63;;;32.90;51.80;;;;;;5097698;28;20032;-63
2023/08/27 09:44:50;;;;;;;16.10;14.40;;;32.90;51.10;;;;;;5115637;28;20321;-63
2023/08/27 09:47:16;;;;;;;16.85;14.45;;;32.90;51.00;;;;;;5115154;28;20027;-63
2023/08/27 09:49:45;;;;;;;17.27;12.88;;;33.00;50.50;;;;;;5116586;28;20022;-63
2023/08/27 09:52:11;;;;;;;17.40;13.25;;;32.90;50.70;;;;;;5115751;28;20039;-63
2023/08/27 09:54:47;;;;;;;16.40;13.25;;;33.10;50.50;;;;;;5116050;28;20027;-63
2023/08/27 09:57:18;;;;;;;16.92;14.18;;;33.20;50.00;;;;;;5115894;28;20026;-63
2023/08/27 09:59:46;;;;;;;16.30;14.50;;;33.10;50.10;;;;;;5116089;28;20086;-62
2023/08/27 10:02:13;;;;;;;16.85;13.20;;;32.90;50.20;;;;;;5114818;28;20440;-63
2023/08/27 10:04:56;;;;;;;18.48;14.23;;;32.90;50.70;;;;;;5115628;28;20028;-63
2023/08/27 10:07:22;;;;;;;19.08;14.10;;;32.90;50.00;;;;;;5115792;28;20075;-62
2023/08/27 10:09:53;;;;;;;17.73;13.25;;;32.90;50.00;;;;;;5114621;28;20445;-63
2023/08/27 10:14:47;;;;;;;15.00;12.88;;;33.10;50.00;;;;;;5116157;28;20039;-62
2023/08/27 10:17:14;;;;;;;16.27;12.52;;;33.10;48.50;;;;;;5115130;28;20485;-62
2023/08/27 10:19:41;;;;;;;15.02;12.32;;;33.00;48.30;;;;;;5116455;28;20111;-63
2023/08/27 10:22:08;;;;;;;15.02;13.40;;;32.90;48.90;;;;;;5115678;28;20051;-62
2023/08/27 10:24:35;;;;;;;16.88;13.77;;;32.90;48.90;;;;;;5115787;28;20015;-62
2023/08/27 10:27:03;;;;;;;18.80;14.02;;;33.00;49.30;;;;;;5115608;28;20023;-63
2023/08/27 10:29:30;;;;;;;14.48;12.70;;;33.00;49.10;;;;;;5115559;28;20035;-63
2023/08/27 10:31:57;;;;;;;14.48;12.27;;;33.00;49.30;;;;;;5115840;28;20027;-62
2023/08/27 10:34:24;;;;;;;15.98;12.55;;;33.00;49.10;;;;;;5114453;28;20059;-63
2023/08/27 10:36:51;;;;;;;13.68;12.02;;;33.10;49.10;;;;;;5115784;28;20028;-62
2023/08/27 10:39:26;;;;;;;16.88;12.50;;;33.20;48.60;;;;;;5115748;28;20057;-62
2023/08/27 10:41:53;;;;;;;18.60;12.43;;;33.30;48.20;;;;;;5115734;28;20019;-63
2023/08/27 10:44:20;;;;;;;16.58;11.65;;;33.40;47.20;;;;;;5115683;28;20038;-63
2023/08/27 10:47:09;;;;;;;15.25;12.95;;;33.40;47.40;;;;;;5115687;28;20149;-63
2023/08/27 10:49:40;;;;;;;15.80;13.18;;;33.60;47.80;;;;;;5115701;28;20019;-62
2023/08/27 10:52:14;;;;;;;19.77;13.13;;;33.80;47.30;;;;;;5115168;28;20044;-63
2023/08/27 10:54:40;;;;;;;14.95;11.90;;;33.80;47.60;;;;;;5114586;28;20027;-62
2023/08/27 10:57:26;;;;;;;14.23;12.15;;;33.80;47.50;;;;;;5114359;28;20024;-63
2023/08/27 11:00:10;;;;;;;14.63;11.15;;;33.80;45.80;;;;;;5115797;28;20111;-63
2023/08/27 11:02:57;;;;;;;16.02;11.73;;;33.70;46.40;;;;;;5115160;28;20031;-63
2023/08/27 11:05:29;;;;;;;14.73;11.30;;;33.60;46.30;;;;;;5114329;28;20027;-63
2023/08/27 11:08:01;;;;;;;14.23;10.93;;;33.60;46.60;;;;;;5115514;28;20336;-63
2023/08/27 11:10:32;;;;;;;12.93;10.23;;;33.60;46.60;;;;;;5115249;28;20027;-63
2023/08/27 11:12:58;;;;;;;14.63;10.82;;;33.70;45.30;;;;;;5115122;28;20475;-63
2023/08/27 11:15:51;;;;;;;14.10;10.02;;;33.70;44.60;;;;;;5115052;28;20039;-63
2023/08/27 11:18:21;;;;;;;12.57;9.95;;;33.70;45.00;;;;;;5114265;28;20032;-63
2023/08/27 11:20:50;;;;;;;12.18;9.88;;;33.80;44.50;;;;;;5116724;28;20358;-63
2023/08/27 11:23:17;;;;;;;15.27;10.18;;;33.90;43.80;;;;;;5101055;28;20023;-62
2023/08/27 11:25:46;;;;;;;11.02;9.18;;;33.90;43.80;;;;;;5119297;28;20043;-62
2023/08/27 11:28:13;;;;;;;14.25;9.50;;;33.90;43.40;;;;;;5117831;28;20016;-63
2023/08/27 11:30:43;;;;;;;11.23;9.40;;;33.80;43.30;;;;;;5118673;28;20027;-63
2023/08/27 11:33:14;;;;;;;14.35;9.82;;;33.70;43.70;;;;;;5119059;28;20027;-62
2023/08/27 11:35:40;;;;;;;18.23;10.73;;;33.80;44.00;;;;;;5101030;28;20027;-62
2023/08/27 11:38:10;;;;;;;11.55;9.07;;;33.80;44.20;;;;;;5118532;28;20030;-63
2023/08/27 11:40:38;;;;;;;12.30;10.40;;;33.80;44.50;;;;;;5117513;28;20466;-62
2023/08/27 11:43:04;;;;;;;12.35;9.60;;;33.70;44.60;;;;;;5118439;28;20033;-63
2023/08/27 11:45:31;;;;;;;18.55;10.90;;;33.70;44.80;;;;;;5118287;28;20028;-62
2023/08/27 11:48:08;;;;;;;12.13;10.15;;;33.80;44.70;;;;;;5118388;28;20093;-63
2023/08/27 11:50:38;;;;;;;12.80;10.75;;;33.90;44.80;;;;;;5118288;28;20456;-63
2023/08/27 11:53:05;;;;;;;13.70;11.93;;;33.90;45.00;;;;;;5117666;28;20077;-62
2023/08/27 11:55:32;;;;;;;15.23;11.82;;;33.90;45.00;;;;;;5118087;28;20337;-61
2023/08/27 11:57:58;;;;;;;15.52;11.98;;;33.90;45.20;;;;;;5118151;28;20038;-62
2023/08/27 12:00:26;;;;;;;12.60;11.30;;;34.00;45.40;;;;;;5118283;28;20432;-62
2023/08/27 12:02:54;;;;;;;14.50;12.23;;;34.00;45.70;;;;;;5117971;28;20024;-62
2023/08/27 12:05:20;;;;;;;15.18;12.38;;;34.00;45.50;;;;;;5118686;28;20031;-62
2023/08/27 12:07:46;;;;;;;14.07;11.52;;;34.10;45.60;;;;;;5117937;28;20035;-61
2023/08/27 12:10:15;;;;;;;16.65;12.10;;;34.00;45.50;;;;;;5118430;28;20032;-62
2023/08/27 12:12:46;;;;;;;17.83;11.75;;;33.90;45.80;;;;;;5118069;28;20106;-62
2023/08/27 12:15:12;;;;;;;14.98;12.52;;;33.90;45.90;;;;;;5117764;28;20464;-61
2023/08/27 12:17:38;;;;;;;13.70;11.38;;;33.90;45.90;;;;;;5117705;28;20032;-62
2023/08/27 12:20:07;;;;;;;15.15;11.07;;;33.90;45.70;;;;;;5116646;28;20035;-62
2023/08/27 12:22:43;;;;;;;15.27;11.07;;;33.90;45.80;;;;;;5116675;28;20408;-63
2023/08/27 12:25:11;;;;;;;12.98;10.20;;;34.00;45.60;;;;;;5117487;28;20027;-61
2023/08/27 12:27:40;;;;;;;14.43;10.70;;;34.10;45.60;;;;;;5117799;28;20028;-61
2023/08/27 12:30:10;;;;;;;13.85;11.07;;;34.20;45.50;;;;;;5117440;28;20016;-62
2023/08/27 12:32:36;;;;;;;14.98;10.23;;;34.30;45.30;;;;;;5117318;28;20027;-62
2023/08/27 12:35:06;;;;;;;14.38;11.10;;;34.30;44.90;;;;;;5117320;28;20020;-61